createdAt,value
2018-09-15T00:00:04.351Z,40.01
2018-09-15T00:01:04.371Z,39.82
2018-09-15T00:02:04.362Z,40.21
2018-09-15T00:03:04.379Z,39.82
2018-09-15T00:04:04.375Z,40.01
2018-09-15T00:05:04.383Z,40.01
2018-09-15T00:06:04.390Z,40.01
2018-09-15T00:07:04.397Z,39.82
2018-09-15T00:08:04.403Z,40.01
2018-09-15T00:09:04.412Z,40.01
2018-09-15T00:10:04.420Z,40.01
2018-09-15T00:11:04.426Z,40.01
2018-09-15T00:12:04.431Z,40.01
2018-09-15T00:13:04.439Z,40.01
2018-09-15T00:14:04.449Z,40.01
2018-09-15T00:15:04.454Z,40.01
2018-09-15T00:16:04.459Z,40.01
2018-09-15T00:17:04.468Z,40.01
2018-09-15T00:18:04.479Z,40.01
2018-09-15T00:19:04.481Z,40.01
2018-09-15T00:20:04.488Z,40.01
2018-09-15T00:21:04.494Z,39.92
2018-09-15T00:22:04.501Z,40.01
2018-09-15T00:23:04.535Z,40.01
2018-09-15T00:24:04.516Z,39.82
2018-09-15T00:25:04.523Z,40.11
2018-09-15T00:26:04.529Z,39.92
2018-09-15T00:27:04.536Z,40.01
2018-09-15T00:28:04.542Z,40.01
2018-09-15T00:29:04.550Z,39.92
2018-09-15T00:30:04.556Z,39.82
2018-09-15T00:31:04.564Z,40.01
2018-09-15T00:32:04.570Z,40.01
2018-09-15T00:33:04.579Z,40.01
2018-09-15T00:34:04.584Z,39.92
2018-09-15T00:35:04.590Z,39.92
2018-09-15T00:36:04.597Z,39.92
2018-09-15T00:37:04.604Z,40.11
2018-09-15T00:38:04.611Z,40.21
2018-09-15T00:39:04.683Z,40.11
2018-09-15T00:40:04.624Z,39.82
2018-09-15T00:41:04.631Z,40.01
2018-09-15T00:42:04.643Z,40.01
2018-09-15T00:43:04.645Z,40.01
2018-09-15T00:44:04.651Z,40.11
2018-09-15T00:45:04.657Z,40.11
2018-09-15T00:46:04.664Z,40.11
2018-09-15T00:47:04.672Z,40.11
2018-09-15T00:48:04.687Z,39.92
2018-09-15T00:49:04.684Z,39.92
2018-09-15T00:50:04.692Z,39.92
2018-09-15T00:51:04.699Z,39.92
2018-09-15T00:52:04.705Z,40.01
2018-09-15T00:53:04.713Z,39.82
2018-09-15T00:54:04.725Z,40.11
2018-09-15T00:55:04.728Z,40.01
2018-09-15T00:56:04.734Z,39.82
2018-09-15T00:57:04.739Z,40.01
2018-09-15T00:58:04.746Z,40.01
2018-09-15T00:59:04.754Z,40.01
2018-09-15T01:00:04.760Z,40.01
2018-09-15T01:01:04.767Z,40.11
2018-09-15T01:02:04.776Z,40.01
2018-09-15T01:03:04.781Z,40.11
2018-09-15T01:04:04.788Z,40.01
2018-09-15T01:05:04.795Z,40.11
2018-09-15T01:06:04.804Z,40.01
2018-09-15T01:07:04.811Z,40.01
2018-09-15T01:08:04.819Z,40.11
2018-09-15T01:09:04.824Z,40.01
2018-09-15T01:10:04.829Z,40.01
2018-09-15T01:11:04.838Z,40.21
2018-09-15T01:12:04.840Z,40.01
2018-09-15T01:13:04.850Z,40.01
2018-09-15T01:14:04.910Z,40.01
2018-09-15T01:15:04.873Z,40.01
2018-09-15T01:16:04.872Z,39.82
2018-09-15T01:17:04.877Z,40.01
2018-09-15T01:18:04.883Z,40.01
2018-09-15T01:19:04.891Z,40.01
2018-09-15T01:20:04.936Z,40.01
2018-09-15T01:21:04.905Z,40.01
2018-09-15T01:22:04.910Z,40.01
2018-09-15T01:23:04.919Z,40.01
2018-09-15T01:24:04.924Z,40.01
2018-09-15T01:25:04.931Z,40.01
2018-09-15T01:26:04.948Z,39.92
2018-09-15T01:27:04.947Z,39.92
2018-09-15T01:28:04.954Z,40.01
2018-09-15T01:29:04.960Z,39.92
2018-09-15T01:30:04.967Z,40.01
2018-09-15T01:31:04.973Z,40.01
2018-09-15T01:32:04.980Z,39.92
2018-09-15T01:33:04.988Z,40.11
2018-09-15T01:34:04.994Z,39.92
2018-09-15T01:35:05.001Z,40.21
2018-09-15T01:36:05.012Z,39.82
2018-09-15T01:37:05.014Z,39.72
2018-09-15T01:38:05.021Z,39.53
2018-09-15T01:39:05.028Z,40.11
2018-09-15T01:40:05.035Z,39.92
2018-09-15T01:41:05.041Z,39.92
2018-09-15T01:42:05.049Z,39.92
2018-09-15T01:43:05.056Z,40.11
2018-09-15T01:44:05.062Z,40.01
2018-09-15T01:45:05.069Z,40.01
2018-09-15T01:46:05.080Z,39.92
2018-09-15T01:47:05.083Z,39.92
2018-09-15T01:48:05.093Z,39.82
2018-09-15T01:49:05.097Z,40.01
2018-09-15T01:50:05.103Z,40.01
2018-09-15T01:51:05.114Z,39.92
2018-09-15T01:52:05.118Z,40.01
2018-09-15T01:53:05.125Z,40.01
2018-09-15T01:54:05.132Z,39.92
2018-09-15T01:55:05.138Z,39.92
2018-09-15T01:56:05.144Z,39.62
2018-09-15T01:57:05.152Z,39.92
2018-09-15T01:58:05.158Z,40.03
2018-09-15T01:59:05.165Z,40.01
2018-09-15T02:00:05.172Z,40.01
2018-09-15T02:01:05.183Z,40.01
2018-09-15T02:02:05.185Z,39.92
2018-09-15T02:03:05.193Z,39.72
2018-09-15T02:04:05.200Z,40.01
2018-09-15T02:05:05.209Z,40.11
2018-09-15T02:06:05.213Z,39.53
2018-09-15T02:07:05.221Z,39.53
2018-09-15T02:08:05.226Z,39.92
2018-09-15T02:09:05.233Z,40.21
2018-09-15T02:10:05.240Z,40.01
2018-09-15T02:11:05.261Z,40.01
2018-09-15T02:12:05.260Z,40.11
2018-09-15T02:13:05.262Z,39.92
2018-09-15T02:14:05.271Z,40.01
2018-09-15T02:15:05.274Z,39.72
2018-09-15T02:16:05.279Z,39.82
2018-09-15T02:17:05.288Z,39.92
2018-09-15T02:18:05.298Z,40.31
2018-09-15T02:19:05.307Z,40.41
2018-09-15T02:20:05.308Z,40.50
2018-09-15T02:21:05.315Z,40.50
2018-09-15T02:22:05.325Z,40.41
2018-09-15T02:23:05.512Z,40.41
2018-09-15T02:24:05.335Z,40.41
2018-09-15T02:25:05.352Z,40.41
2018-09-15T02:26:05.348Z,40.11
2018-09-15T02:27:05.357Z,40.41
2018-09-15T02:28:05.363Z,40.50
2018-09-15T02:29:05.446Z,40.79
2018-09-15T02:30:05.379Z,40.69
2018-09-15T02:31:05.389Z,40.69
2018-09-15T02:32:05.391Z,41.08
2018-09-15T02:33:05.397Z,41.08
2018-09-15T02:34:05.405Z,40.99
2018-09-15T02:35:05.411Z,40.99
2018-09-15T02:36:05.434Z,40.79
2018-09-15T02:37:05.432Z,40.89
2018-09-15T02:38:05.432Z,40.89
2018-09-15T02:39:05.440Z,40.99
2018-09-15T02:40:05.448Z,40.99
2018-09-15T02:41:05.469Z,41.18
2018-09-15T02:42:05.459Z,41.08
2018-09-15T02:43:05.467Z,41.18
2018-09-15T02:44:05.472Z,41.08
2018-09-15T02:45:05.480Z,40.99
2018-09-15T02:46:05.491Z,41.08
2018-09-15T02:47:05.500Z,41.28
2018-09-15T02:48:05.501Z,41.18
2018-09-15T02:49:05.513Z,41.28
2018-09-15T02:50:05.514Z,41.57
2018-09-15T02:51:05.521Z,41.55
2018-09-15T02:52:05.531Z,41.47
2018-09-15T02:53:05.536Z,41.45
2018-09-15T02:54:05.542Z,41.47
2018-09-15T02:55:05.548Z,41.26
2018-09-15T02:56:05.560Z,41.16
2018-09-15T02:57:05.561Z,41.45
2018-09-15T02:58:05.570Z,41.55
2018-09-15T02:59:05.576Z,41.64
2018-09-15T03:00:05.581Z,41.26
2018-09-15T03:01:05.587Z,41.55
2018-09-15T03:02:05.597Z,41.64
2018-09-15T03:03:05.602Z,41.55
2018-09-15T03:04:05.609Z,41.55
2018-09-15T03:05:05.616Z,41.94
2018-09-15T03:06:05.621Z,42.13
2018-09-15T03:07:05.637Z,41.64
2018-09-15T03:08:05.635Z,41.84
2018-09-15T03:09:05.642Z,42.03
2018-09-15T03:10:05.655Z,41.94
2018-09-15T03:11:05.656Z,41.64
2018-09-15T03:12:05.661Z,41.74
2018-09-15T03:13:05.666Z,42.13
2018-09-15T03:14:05.676Z,42.13
2018-09-15T03:15:05.681Z,41.84
2018-09-15T03:16:05.690Z,42.23
2018-09-15T03:17:05.696Z,42.13
2018-09-15T03:18:05.703Z,42.03
2018-09-15T03:19:05.710Z,42.03
2018-09-15T03:20:05.716Z,41.74
2018-09-15T03:21:05.724Z,41.94
2018-09-15T03:22:05.729Z,41.94
2018-09-15T03:23:05.736Z,41.84
2018-09-15T03:24:05.742Z,41.94
2018-09-15T03:25:05.752Z,41.64
2018-09-15T03:26:05.755Z,41.84
2018-09-15T03:27:05.762Z,41.84
2018-09-15T03:28:05.770Z,42.13
2018-09-15T03:29:05.776Z,41.74
2018-09-15T03:30:05.784Z,41.74
2018-09-15T03:31:05.790Z,41.74
2018-09-15T03:32:05.797Z,42.03
2018-09-15T03:33:05.802Z,41.94
2018-09-15T03:34:05.809Z,41.84
2018-09-15T03:35:05.816Z,42.03
2018-09-15T03:36:05.822Z,41.64
2018-09-15T03:37:05.829Z,41.74
2018-09-15T03:38:05.836Z,42.23
2018-09-15T03:39:05.843Z,42.23
2018-09-15T03:40:05.848Z,42.23
2018-09-15T03:41:05.856Z,42.13
2018-09-15T03:42:05.865Z,42.23
2018-09-15T03:43:05.871Z,42.23
2018-09-15T03:44:05.876Z,42.13
2018-09-15T03:45:05.883Z,42.13
2018-09-15T03:46:05.889Z,42.13
2018-09-15T03:47:05.896Z,41.84
2018-09-15T03:48:05.902Z,42.03
2018-09-15T03:49:05.909Z,41.84
2018-09-15T03:50:05.915Z,42.33
2018-09-15T03:51:05.923Z,42.13
2018-09-15T03:52:05.928Z,42.23
2018-09-15T03:53:05.935Z,42.61
2018-09-15T03:54:05.941Z,42.61
2018-09-15T03:55:05.949Z,42.61
2018-09-15T03:56:05.952Z,42.61
2018-09-15T03:57:05.961Z,42.71
2018-09-15T03:58:05.969Z,42.69
2018-09-15T03:59:05.976Z,42.52
2018-09-15T04:00:05.987Z,42.71
2018-09-15T04:01:05.988Z,42.60
2018-09-15T04:02:05.996Z,42.52
2018-09-15T04:03:06.001Z,42.23
2018-09-15T04:04:06.010Z,42.71
2018-09-15T04:05:06.015Z,42.71
2018-09-15T04:06:06.033Z,42.81
2018-09-15T04:07:06.031Z,42.43
2018-09-15T04:08:06.035Z,42.71
2018-09-15T04:09:06.041Z,42.71
2018-09-15T04:10:06.048Z,42.52
2018-09-15T04:11:06.057Z,42.33
2018-09-15T04:12:06.060Z,42.52
2018-09-15T04:13:06.067Z,42.40
2018-09-15T04:14:06.074Z,42.61
2018-09-15T04:15:06.081Z,42.23
2018-09-15T04:16:06.091Z,42.43
2018-09-15T04:17:06.096Z,42.43
2018-09-15T04:18:06.102Z,42.43
2018-09-15T04:19:06.108Z,42.52
2018-09-15T04:20:06.113Z,42.40
2018-09-15T04:21:06.119Z,42.30
2018-09-15T04:22:06.126Z,42.30
2018-09-15T04:23:06.132Z,42.11
2018-09-15T04:24:06.139Z,42.30
2018-09-15T04:25:06.145Z,42.40
2018-09-15T04:26:06.152Z,42.40
2018-09-15T04:27:06.161Z,42.50
2018-09-15T04:28:06.165Z,42.69
2018-09-15T04:29:06.172Z,42.60
2018-09-15T04:30:06.179Z,42.40
2018-09-15T04:31:06.185Z,42.21
2018-09-15T04:32:06.197Z,42.40
2018-09-15T04:33:06.201Z,42.50
2018-09-15T04:34:06.208Z,42.40
2018-09-15T04:35:06.216Z,42.60
2018-09-15T04:36:06.229Z,42.30
2018-09-15T04:37:06.234Z,42.40
2018-09-15T04:38:06.237Z,42.30
2018-09-15T04:39:06.242Z,42.21
2018-09-15T04:40:06.245Z,42.50
2018-09-15T04:41:06.263Z,42.50
2018-09-15T04:42:06.265Z,42.13
2018-09-15T04:43:06.274Z,42.69
2018-09-15T04:44:06.273Z,42.60
2018-09-15T04:45:06.278Z,42.50
2018-09-15T04:46:06.283Z,42.40
2018-09-15T04:47:06.291Z,42.69
2018-09-15T04:48:06.306Z,42.69
2018-09-15T04:49:06.302Z,42.21
2018-09-15T04:50:06.310Z,42.21
2018-09-15T04:51:06.355Z,42.40
2018-09-15T04:52:06.323Z,42.69
2018-09-15T04:53:06.333Z,42.30
2018-09-15T04:54:06.341Z,42.30
2018-09-15T04:55:06.343Z,42.40
2018-09-15T04:56:06.349Z,42.30
2018-09-15T04:57:06.355Z,42.33
2018-09-15T04:58:06.361Z,42.81
2018-09-15T04:59:06.369Z,42.61
2018-09-15T05:00:06.377Z,42.71
2018-09-15T05:01:06.381Z,42.71
2018-09-15T05:02:06.388Z,42.61
2018-09-15T05:03:06.395Z,42.50
2018-09-15T05:04:06.400Z,42.71
2018-09-15T05:05:06.412Z,42.71
2018-09-15T05:06:06.414Z,42.43
2018-09-15T05:07:06.426Z,42.71
2018-09-15T05:08:06.427Z,42.69
2018-09-15T05:09:06.433Z,42.40
2018-09-15T05:10:06.440Z,42.52
2018-09-15T05:11:06.448Z,42.43
2018-09-15T05:12:06.454Z,42.40
2018-09-15T05:13:06.460Z,42.50
2018-09-15T05:14:06.466Z,42.30
2018-09-15T05:15:06.473Z,42.50
2018-09-15T05:16:06.483Z,42.50
2018-09-15T05:17:06.486Z,42.60
2018-09-15T05:18:06.494Z,42.40
2018-09-15T05:19:06.499Z,42.60
2018-09-15T05:20:06.506Z,42.40
2018-09-15T05:21:06.513Z,42.50
2018-09-15T05:22:06.519Z,42.69
2018-09-15T05:23:06.525Z,42.79
2018-09-15T05:24:06.532Z,42.50
2018-09-15T05:25:06.538Z,42.89
2018-09-15T05:26:06.548Z,42.60
2018-09-15T05:27:06.552Z,42.40
2018-09-15T05:28:06.557Z,42.40
2018-09-15T05:29:06.569Z,42.40
2018-09-15T05:30:06.571Z,42.11
2018-09-15T05:31:06.588Z,42.21
2018-09-15T05:32:06.584Z,42.33
2018-09-15T05:33:06.591Z,42.50
2018-09-15T05:34:06.597Z,42.40
2018-09-15T05:35:06.605Z,42.50
2018-09-15T05:36:06.620Z,42.40
2018-09-15T05:37:06.616Z,42.30
2018-09-15T05:38:06.626Z,42.40
2018-09-15T05:39:06.630Z,42.60
2018-09-15T05:40:06.637Z,42.40
2018-09-15T05:41:06.642Z,42.60
2018-09-15T05:42:06.649Z,42.40
2018-09-15T05:43:06.656Z,42.50
2018-09-15T05:44:06.662Z,42.30
2018-09-15T05:45:06.668Z,42.60
2018-09-15T05:46:06.676Z,42.50
2018-09-15T05:47:06.681Z,42.89
2018-09-15T05:48:06.687Z,42.23
2018-09-15T05:49:06.695Z,42.40
2018-09-15T05:50:06.702Z,42.40
2018-09-15T05:51:06.710Z,42.40
2018-09-15T05:52:06.714Z,42.50
2018-09-15T05:53:06.721Z,42.40
2018-09-15T05:54:06.735Z,42.40
2018-09-15T05:55:06.735Z,42.89
2018-09-15T05:56:06.834Z,42.89
2018-09-15T05:57:06.747Z,42.79
2018-09-15T05:58:06.753Z,42.69
2018-09-15T05:59:06.760Z,42.89
2018-09-15T06:00:06.766Z,42.69
2018-09-15T06:01:06.773Z,42.50
2018-09-15T06:02:06.782Z,42.69
2018-09-15T06:03:06.790Z,42.69
2018-09-15T06:04:06.792Z,42.60
2018-09-15T06:05:06.798Z,42.69
2018-09-15T06:06:06.810Z,42.30
2018-09-15T06:07:06.826Z,42.60
2018-09-15T06:08:06.818Z,42.30
2018-09-15T06:09:06.827Z,42.60
2018-09-15T06:10:06.841Z,42.30
2018-09-15T06:11:06.838Z,42.40
2018-09-15T06:12:06.844Z,42.50
2018-09-15T06:13:06.852Z,42.60
2018-09-15T06:14:06.859Z,42.99
2018-09-15T06:15:06.865Z,42.40
2018-09-15T06:16:06.874Z,42.60
2018-09-15T06:17:06.904Z,42.40
2018-09-15T06:18:06.883Z,42.40
2018-09-15T06:19:06.890Z,42.30
2018-09-15T06:20:06.896Z,42.69
2018-09-15T06:21:06.904Z,42.60
2018-09-15T06:22:06.909Z,42.60
2018-09-15T06:23:06.919Z,42.40
2018-09-15T06:24:06.922Z,42.50
2018-09-15T06:25:06.930Z,42.40
2018-09-15T06:26:06.954Z,42.50
2018-09-15T06:27:06.942Z,42.60
2018-09-15T06:28:06.948Z,42.69
2018-09-15T06:29:06.955Z,42.50
2018-09-15T06:30:06.961Z,42.69
2018-09-15T06:31:06.969Z,42.60
2018-09-15T06:32:06.975Z,42.60
2018-09-15T06:33:06.981Z,42.30
2018-09-15T06:34:06.991Z,42.89
2018-09-15T06:35:06.994Z,42.60
2018-09-15T06:36:07.001Z,42.40
2018-09-15T06:37:07.008Z,42.69
2018-09-15T06:38:07.015Z,42.79
2018-09-15T06:39:07.020Z,42.50
2018-09-15T06:40:07.032Z,42.79
2018-09-15T06:41:07.032Z,42.60
2018-09-15T06:42:07.040Z,42.79
2018-09-15T06:43:07.046Z,42.50
2018-09-15T06:44:07.052Z,42.79
2018-09-15T06:45:07.059Z,42.40
2018-09-15T06:46:07.065Z,42.79
2018-09-15T06:47:07.071Z,42.60
2018-09-15T06:48:07.078Z,42.50
2018-09-15T06:49:07.084Z,42.69
2018-09-15T06:50:07.091Z,42.69
2018-09-15T06:51:07.098Z,42.40
2018-09-15T06:52:07.103Z,42.60
2018-09-15T06:53:07.110Z,42.69
2018-09-15T06:54:07.116Z,42.60
2018-09-15T06:55:07.124Z,42.60
2018-09-15T06:56:07.139Z,42.79
2018-09-15T06:57:07.137Z,42.69
2018-09-15T06:58:07.143Z,42.60
2018-09-15T06:59:07.149Z,42.69
2018-09-15T07:00:07.156Z,42.69
2018-09-15T07:01:07.163Z,42.69
2018-09-15T07:02:07.167Z,42.79
2018-09-15T07:03:07.176Z,42.60
2018-09-15T07:04:07.182Z,42.50
2018-09-15T07:05:07.187Z,42.60
2018-09-15T07:06:07.200Z,42.69
2018-09-15T07:07:07.289Z,42.69
2018-09-15T07:08:07.207Z,42.89
2018-09-15T07:09:07.213Z,42.30
2018-09-15T07:10:07.220Z,42.50
2018-09-15T07:11:07.224Z,42.60
2018-09-15T07:12:07.235Z,42.40
2018-09-15T07:13:07.279Z,42.60
2018-09-15T07:14:07.245Z,42.69
2018-09-15T07:15:07.253Z,42.40
2018-09-15T07:16:07.258Z,42.40
2018-09-15T07:17:07.265Z,42.60
2018-09-15T07:18:07.278Z,42.21
2018-09-15T07:19:07.283Z,42.21
2018-09-15T07:20:07.320Z,42.30
2018-09-15T07:21:07.291Z,41.82
2018-09-15T07:22:07.298Z,42.30
2018-09-15T07:23:07.305Z,42.21
2018-09-15T07:24:07.311Z,42.40
2018-09-15T07:25:07.318Z,42.02
2018-09-15T07:26:07.325Z,41.92
2018-09-15T07:27:07.339Z,41.82
2018-09-15T07:28:07.337Z,41.63
2018-09-15T07:29:07.348Z,41.53
2018-09-15T07:30:07.352Z,41.63
2018-09-15T07:31:07.416Z,41.63
2018-09-15T07:32:07.363Z,41.63
2018-09-15T07:33:07.369Z,41.24
2018-09-15T07:34:07.380Z,41.43
2018-09-15T07:35:07.383Z,41.55
2018-09-15T07:36:07.388Z,41.53
2018-09-15T07:37:07.395Z,41.24
2018-09-15T07:38:07.402Z,41.24
2018-09-15T07:39:07.408Z,41.14
2018-09-15T07:40:07.414Z,41.06
2018-09-15T07:41:07.422Z,41.06
2018-09-15T07:42:07.427Z,40.67
2018-09-15T07:43:07.434Z,41.06
2018-09-15T07:44:07.443Z,40.97
2018-09-15T07:45:07.447Z,41.16
2018-09-15T07:46:07.454Z,40.77
2018-09-15T07:47:07.460Z,40.77
2018-09-15T07:48:07.466Z,40.48
2018-09-15T07:49:07.473Z,40.58
2018-09-15T07:50:07.498Z,40.29
2018-09-15T07:51:07.486Z,40.19
2018-09-15T07:52:07.496Z,40.39
2018-09-15T07:53:07.499Z,40.29
2018-09-15T07:54:07.505Z,40.39
2018-09-15T07:55:07.512Z,40.48
2018-09-15T07:56:07.519Z,39.90
2018-09-15T07:57:07.526Z,39.90
2018-09-15T07:58:07.532Z,39.90
2018-09-15T07:59:07.538Z,40.09
2018-09-15T08:00:07.545Z,40.00
2018-09-15T08:01:07.552Z,39.51
2018-09-15T08:02:07.558Z,39.70
2018-09-15T08:03:07.566Z,39.92
2018-09-15T08:04:07.570Z,39.34
2018-09-15T08:05:07.577Z,39.14
2018-09-15T08:06:07.585Z,39.24
2018-09-15T08:07:07.592Z,39.22
2018-09-15T08:08:07.598Z,39.24
2018-09-15T08:09:07.605Z,38.95
2018-09-15T08:10:07.612Z,38.95
2018-09-15T08:11:07.714Z,38.83
2018-09-15T08:12:07.624Z,39.04
2018-09-15T08:13:07.631Z,39.04
2018-09-15T08:14:07.637Z,39.14
2018-09-15T08:15:07.644Z,39.14
2018-09-15T08:16:07.660Z,39.12
2018-09-15T08:17:07.657Z,39.24
2018-09-15T08:18:07.666Z,39.22
2018-09-15T08:19:07.671Z,39.24
2018-09-15T08:20:07.682Z,38.46
2018-09-15T08:21:07.686Z,38.85
2018-09-15T08:22:07.691Z,38.75
2018-09-15T08:23:07.697Z,38.65
2018-09-15T08:24:07.704Z,38.65
2018-09-15T08:25:07.710Z,38.64
2018-09-15T08:26:07.749Z,38.56
2018-09-15T08:27:07.724Z,38.75
2018-09-15T08:28:07.732Z,38.56
2018-09-15T08:29:07.741Z,38.37
2018-09-15T08:30:07.745Z,38.37
2018-09-15T08:31:07.760Z,38.46
2018-09-15T08:32:07.880Z,38.56
2018-09-15T08:33:07.764Z,38.56
2018-09-15T08:34:07.773Z,38.46
2018-09-15T08:35:07.777Z,38.37
2018-09-15T08:36:07.785Z,38.27
2018-09-15T08:37:07.791Z,38.17
2018-09-15T08:38:07.822Z,38.27
2018-09-15T08:39:07.805Z,38.17
2018-09-15T08:40:07.817Z,38.37
2018-09-15T08:41:07.821Z,38.37
2018-09-15T08:42:07.823Z,38.27
2018-09-15T08:43:07.831Z,38.44
2018-09-15T08:44:07.836Z,38.44
2018-09-15T08:45:07.844Z,38.27
2018-09-15T08:46:07.861Z,38.46
2018-09-15T08:47:07.858Z,38.27
2018-09-15T08:48:07.883Z,38.34
2018-09-15T08:49:07.875Z,38.34
2018-09-15T08:50:07.877Z,38.64
2018-09-15T08:51:07.891Z,38.34
2018-09-15T08:52:07.890Z,37.88
2018-09-15T08:53:07.897Z,37.88
2018-09-15T08:54:07.904Z,38.07
2018-09-15T08:55:07.920Z,38.06
2018-09-15T08:56:07.925Z,38.07
2018-09-15T08:57:07.928Z,37.96
2018-09-15T08:58:07.930Z,38.17
2018-09-15T08:59:07.941Z,38.17
2018-09-15T09:00:07.946Z,37.88
2018-09-15T09:01:07.950Z,37.96
2018-09-15T09:02:07.958Z,38.06
2018-09-15T09:03:07.965Z,38.06
2018-09-15T09:04:07.970Z,38.15
2018-09-15T09:05:07.979Z,37.66
2018-09-15T09:06:07.986Z,38.25
2018-09-15T09:07:07.993Z,37.76
2018-09-15T09:08:08.010Z,37.76
2018-09-15T09:09:08.003Z,37.88
2018-09-15T09:10:08.065Z,37.76
2018-09-15T09:11:08.021Z,37.86
2018-09-15T09:12:08.024Z,37.57
2018-09-15T09:13:08.041Z,37.76
2018-09-15T09:14:08.038Z,37.76
2018-09-15T09:15:08.043Z,37.76
2018-09-15T09:16:08.050Z,37.66
2018-09-15T09:17:08.056Z,37.86
2018-09-15T09:18:08.063Z,37.59
2018-09-15T09:19:08.073Z,37.86
2018-09-15T09:20:08.077Z,37.96
2018-09-15T09:21:08.082Z,37.76
2018-09-15T09:22:08.089Z,37.76
2018-09-15T09:23:08.097Z,37.78
2018-09-15T09:24:08.106Z,37.76
2018-09-15T09:25:08.110Z,37.76
2018-09-15T09:26:08.196Z,37.86
2018-09-15T09:27:08.123Z,37.66
2018-09-15T09:28:08.128Z,37.37
2018-09-15T09:29:08.135Z,37.86
2018-09-15T09:30:08.138Z,37.86
2018-09-15T09:31:08.149Z,37.37
2018-09-15T09:32:08.180Z,37.47
2018-09-15T09:33:08.171Z,37.47
2018-09-15T09:34:08.173Z,37.66
2018-09-15T09:35:08.177Z,37.66
2018-09-15T09:36:08.192Z,37.47
2018-09-15T09:37:08.186Z,37.37
2018-09-15T09:38:08.201Z,37.57
2018-09-15T09:39:08.203Z,37.47
2018-09-15T09:40:08.208Z,37.37
2018-09-15T09:41:08.213Z,37.57
2018-09-15T09:42:08.272Z,37.28
2018-09-15T09:43:08.240Z,37.57
2018-09-15T09:44:08.238Z,37.66
2018-09-15T09:45:08.242Z,37.18
2018-09-15T09:46:08.253Z,37.08
2018-09-15T09:47:08.258Z,37.57
2018-09-15T09:48:08.284Z,37.37
2018-09-15T09:49:08.268Z,37.66
2018-09-15T09:50:08.275Z,37.47
2018-09-15T09:51:08.281Z,37.47
2018-09-15T09:52:08.287Z,37.18
2018-09-15T09:53:08.293Z,37.47
2018-09-15T09:54:08.300Z,37.08
2018-09-15T09:55:08.323Z,36.89
2018-09-15T09:56:08.439Z,37.08
2018-09-15T09:57:08.324Z,36.89
2018-09-15T09:58:08.327Z,37.08
2018-09-15T09:59:08.334Z,36.99
2018-09-15T10:00:08.341Z,37.08
2018-09-15T10:01:08.419Z,37.28
2018-09-15T10:02:08.353Z,37.28
2018-09-15T10:03:08.364Z,37.28
2018-09-15T10:04:08.370Z,37.37
2018-09-15T10:05:08.372Z,37.08
2018-09-15T10:06:08.393Z,37.28
2018-09-15T10:07:08.400Z,37.37
2018-09-15T10:08:08.393Z,37.37
2018-09-15T10:09:08.399Z,37.47
2018-09-15T10:10:08.410Z,37.18
2018-09-15T10:11:08.413Z,37.08
2018-09-15T10:12:08.434Z,36.89
2018-09-15T10:13:08.436Z,36.89
2018-09-15T10:14:08.437Z,36.99
2018-09-15T10:15:08.441Z,36.99
2018-09-15T10:16:08.478Z,36.79
2018-09-15T10:17:08.451Z,36.60
2018-09-15T10:18:08.461Z,36.99
2018-09-15T10:19:08.466Z,36.89
2018-09-15T10:20:08.472Z,37.08
2018-09-15T10:21:08.479Z,36.99
2018-09-15T10:22:08.485Z,36.60
2018-09-15T10:23:08.492Z,36.79
2018-09-15T10:24:08.501Z,36.79
2018-09-15T10:25:08.509Z,36.79
2018-09-15T10:26:08.512Z,36.60
2018-09-15T10:27:08.519Z,36.69
2018-09-15T10:28:08.529Z,36.89
2018-09-15T10:29:08.532Z,36.50
2018-09-15T10:30:08.538Z,36.89
2018-09-15T10:31:08.559Z,36.69
2018-09-15T10:32:08.607Z,36.89
2018-09-15T10:33:08.561Z,36.69
2018-09-15T10:34:08.564Z,36.69
2018-09-15T10:35:08.576Z,36.69
2018-09-15T10:36:08.582Z,36.69
2018-09-15T10:37:08.599Z,36.79
2018-09-15T10:38:08.646Z,36.50
2018-09-15T10:39:08.600Z,36.89
2018-09-15T10:40:08.606Z,36.99
2018-09-15T10:41:08.613Z,36.60
2018-09-15T10:42:08.618Z,36.60
2018-09-15T10:43:08.633Z,36.89
2018-09-15T10:44:08.630Z,36.69
2018-09-15T10:45:08.644Z,36.79
2018-09-15T10:46:08.663Z,36.60
2018-09-15T10:47:08.649Z,36.50
2018-09-15T10:48:08.658Z,36.69
2018-09-15T10:49:08.664Z,36.69
2018-09-15T10:50:08.670Z,36.69
2018-09-15T10:51:08.677Z,36.50
2018-09-15T10:52:08.689Z,36.50
2018-09-15T10:53:08.690Z,36.50
2018-09-15T10:54:08.702Z,36.40
2018-09-15T10:55:08.703Z,36.21
2018-09-15T10:56:08.712Z,36.21
2018-09-15T10:57:08.716Z,36.40
2018-09-15T10:58:08.722Z,36.21
2018-09-15T10:59:08.729Z,36.21
2018-09-15T11:00:08.735Z,36.21
2018-09-15T11:01:08.742Z,36.79
2018-09-15T11:02:08.750Z,36.89
2018-09-15T11:03:08.759Z,36.30
2018-09-15T11:04:08.763Z,36.79
2018-09-15T11:05:08.769Z,36.11
2018-09-15T11:06:08.775Z,36.79
2018-09-15T11:07:08.782Z,36.79
2018-09-15T11:08:08.815Z,36.79
2018-09-15T11:09:08.796Z,36.50
2018-09-15T11:10:08.801Z,36.89
2018-09-15T11:11:08.808Z,36.30
2018-09-15T11:12:08.821Z,36.50
2018-09-15T11:13:08.860Z,36.40
2018-09-15T11:14:08.834Z,36.11
2018-09-15T11:15:08.835Z,36.04
2018-09-15T11:16:08.839Z,36.50
2018-09-15T11:17:08.849Z,36.30
2018-09-15T11:18:08.854Z,36.40
2018-09-15T11:19:08.864Z,36.11
2018-09-15T11:20:08.867Z,36.21
2018-09-15T11:21:08.875Z,36.40
2018-09-15T11:22:08.880Z,36.69
2018-09-15T11:23:08.887Z,36.30
2018-09-15T11:24:08.893Z,36.22
2018-09-15T11:25:08.900Z,36.71
2018-09-15T11:26:08.908Z,36.13
2018-09-15T11:27:08.914Z,36.40
2018-09-15T11:28:08.918Z,36.40
2018-09-15T11:29:08.930Z,36.60
2018-09-15T11:30:08.933Z,36.40
2018-09-15T11:31:08.940Z,36.30
2018-09-15T11:32:08.946Z,36.50
2018-09-15T11:33:08.995Z,36.50
2018-09-15T11:34:09.074Z,36.69
2018-09-15T11:35:08.966Z,36.69
2018-09-15T11:36:08.974Z,36.61
2018-09-15T11:37:08.980Z,36.50
2018-09-15T11:38:08.986Z,36.71
2018-09-15T11:39:08.994Z,36.69
2018-09-15T11:40:08.998Z,36.71
2018-09-15T11:41:09.025Z,36.30
2018-09-15T11:42:09.013Z,36.21
2018-09-15T11:43:09.020Z,36.11
2018-09-15T11:44:09.027Z,36.22
2018-09-15T11:45:09.032Z,36.04
2018-09-15T11:46:09.039Z,35.92
2018-09-15T11:47:09.046Z,35.82
2018-09-15T11:48:09.052Z,36.21
2018-09-15T11:49:09.059Z,36.13
2018-09-15T11:50:09.066Z,36.04
2018-09-15T11:51:09.071Z,36.11
2018-09-15T11:52:09.078Z,36.02
2018-09-15T11:53:09.085Z,36.13
2018-09-15T11:54:09.092Z,36.11
2018-09-15T11:55:09.098Z,36.13
2018-09-15T11:56:09.106Z,36.22
2018-09-15T11:57:09.112Z,36.13
2018-09-15T11:58:09.118Z,36.21
2018-09-15T11:59:09.125Z,36.32
2018-09-15T12:00:09.160Z,36.42
2018-09-15T12:01:09.138Z,36.13
2018-09-15T12:02:09.267Z,36.02
2018-09-15T12:03:09.151Z,36.30
2018-09-15T12:04:09.158Z,36.21
2018-09-15T12:05:09.164Z,36.13
2018-09-15T12:06:09.172Z,36.21
2018-09-15T12:07:09.183Z,36.21
2018-09-15T12:08:09.184Z,36.32
2018-09-15T12:09:09.191Z,36.11
2018-09-15T12:10:09.202Z,36.13
2018-09-15T12:11:09.205Z,36.11
2018-09-15T12:12:09.212Z,36.02
2018-09-15T12:13:09.221Z,36.21
2018-09-15T12:14:09.242Z,36.40
2018-09-15T12:15:09.231Z,36.02
2018-09-15T12:16:09.236Z,36.11
2018-09-15T12:17:09.244Z,36.11
2018-09-15T12:18:09.251Z,36.11
2018-09-15T12:19:09.256Z,36.02
2018-09-15T12:20:09.272Z,36.11
2018-09-15T12:21:09.317Z,36.13
2018-09-15T12:22:09.277Z,36.13
2018-09-15T12:23:09.283Z,36.22
2018-09-15T12:24:09.301Z,36.21
2018-09-15T12:25:09.303Z,36.21
2018-09-15T12:26:09.305Z,36.69
2018-09-15T12:27:09.312Z,36.69
2018-09-15T12:28:09.316Z,36.69
2018-09-15T12:29:09.324Z,36.50
2018-09-15T12:30:09.330Z,36.60
2018-09-15T12:31:09.336Z,36.60
2018-09-15T12:32:09.341Z,36.61
2018-09-15T12:33:09.349Z,36.69
2018-09-15T12:34:09.363Z,36.50
2018-09-15T12:35:09.362Z,36.71
2018-09-15T12:36:09.369Z,36.13
2018-09-15T12:37:09.377Z,36.21
2018-09-15T12:38:09.383Z,36.30
2018-09-15T12:39:09.390Z,36.21
2018-09-15T12:40:09.395Z,36.50
2018-09-15T12:41:09.403Z,36.21
2018-09-15T12:42:09.409Z,36.11
2018-09-15T12:43:09.416Z,36.11
2018-09-15T12:44:09.422Z,36.02
2018-09-15T12:45:09.522Z,36.11
2018-09-15T12:46:09.436Z,36.11
2018-09-15T12:47:09.443Z,36.11
2018-09-15T12:48:09.449Z,36.11
2018-09-15T12:49:09.455Z,36.30
2018-09-15T12:50:09.464Z,36.21
2018-09-15T12:51:09.478Z,36.11
2018-09-15T12:52:09.505Z,36.11